Time;durP1;ratioP1;P1;durP2;ratioP2;P2;SDS_P1;SDS_P2;PMS_P1;PMS_P2;Temp;Humidity;BMP_temperature;BMP_pressure;BME280_temperature;BME280_humidity;BME280_pressure;Samples;Min_cycle;Max_cycle;Signal;HPM_P1;HPM_P2
2023/03/17 00:02:31;;;;;;;5.70;5.30;;;2.90;99.90;;;3.52;93.75;97711.75;5241276;28;20256;-63
2023/03/17 00:05:21;;;;;;;5.83;5.43;;;2.90;99.90;;;3.49;94.75;97717.47;5238674;28;20230;-61
2023/03/17 00:07:55;;;;;;;5.90;5.50;;;2.80;99.90;;;3.48;95.20;97723.25;5242338;28;20207;-62
2023/03/17 00:10:28;;;;;;;5.20;4.80;;;2.90;99.90;;;3.52;94.69;97716.81;5240484;28;20291;-61
2023/03/17 00:13:03;;;;;;;5.40;4.80;;;2.80;99.90;;;3.54;94.57;97715.28;5240670;28;20219;-62
2023/03/17 00:15:36;;;;;;;5.07;4.73;;;2.80;99.90;;;3.50;93.65;97713.28;5241840;28;20193;-62
2023/03/17 00:18:15;;;;;;;4.90;4.50;;;2.80;99.90;;;3.47;92.47;97718.09;5241464;28;20285;-65
2023/03/17 00:20:49;;;;;;;4.47;4.17;;;2.80;99.90;;;3.45;93.65;97717.06;5239784;28;20204;-62
2023/03/17 00:23:24;;;;;;;5.00;4.57;;;2.80;99.90;;;3.42;94.31;97717.69;5243949;28;20223;-63
2023/03/17 00:25:57;;;;;;;4.30;4.00;;;2.70;99.90;;;3.38;94.07;97714.06;5243201;28;20194;-62
2023/03/17 00:28:32;;;;;;;4.53;4.23;;;2.70;99.90;;;3.34;94.49;97709.50;5234161;28;20679;-62
2023/03/17 00:31:14;;;;;;;4.80;4.40;;;2.60;99.90;;;3.21;95.18;97705.84;5239441;28;20203;-62
2023/03/17 00:33:49;;;;;;;4.50;4.20;;;2.50;99.90;;;3.16;96.64;97701.28;5229597;28;20322;-62
2023/03/17 00:36:24;;;;;;;4.53;4.13;;;2.50;99.90;;;3.03;97.15;97697.63;5243783;28;20200;-64
2023/03/17 00:38:59;;;;;;;5.00;4.70;;;2.40;99.90;;;2.99;97.58;97688.91;5242103;28;20208;-62
2023/03/17 00:41:32;;;;;;;4.63;4.33;;;2.40;99.90;;;3.02;96.63;97680.72;5241284;28;20318;-63
2023/03/17 00:44:07;;;;;;;4.73;4.43;;;2.30;99.90;;;3.01;96.54;97668.88;5238883;28;20220;-62
2023/03/17 00:46:40;;;;;;;4.60;4.30;;;2.40;99.90;;;3.05;97.08;97668.34;5241061;28;20214;-62
2023/03/17 00:49:18;;;;;;;5.57;5.07;;;2.40;99.90;;;2.98;97.47;97669.50;5242980;28;20294;-62
2023/03/17 00:51:52;;;;;;;5.60;5.00;;;2.30;99.90;;;3.08;96.94;97668.59;5240633;28;20199;-64
2023/03/17 00:54:25;;;;;;;5.40;4.90;;;2.40;99.90;;;3.19;96.98;97674.53;5235164;28;20221;-63
2023/03/17 00:56:58;;;;;;;5.20;4.70;;;2.50;99.90;;;3.34;96.28;97660.63;5234406;28;22922;-64
2023/03/17 00:59:39;;;;;;;5.07;4.67;;;2.60;99.90;;;3.30;96.03;97654.44;5238576;28;20210;-62
2023/03/17 01:02:13;;;;;;;5.10;4.57;;;2.60;99.90;;;3.28;96.89;97663.53;5235136;28;20222;-63
2023/03/17 01:04:46;;;;;;;5.17;4.77;;;2.60;99.90;;;3.23;97.43;97654.69;5235626;28;20227;-66
2023/03/17 01:07:31;;;;;;;6.17;5.67;;;2.60;99.90;;;3.23;98.04;97651.28;5245368;28;20238;-62
2023/03/17 01:10:14;;;;;;;5.93;5.43;;;2.60;99.90;;;3.19;97.84;97655.22;5229858;28;20212;-63
2023/03/17 01:12:47;;;;;;;5.37;4.97;;;2.60;99.90;;;3.25;97.53;97650.66;5237465;28;20557;-62
2023/03/17 01:15:23;;;;;;;6.13;5.63;;;2.70;99.90;;;3.28;96.90;97648.38;5239191;28;20222;-62
2023/03/17 01:17:57;;;;;;;6.10;5.70;;;2.70;99.90;;;3.37;95.75;97651.63;5238528;28;20200;-62
2023/03/17 01:20:32;;;;;;;6.80;6.17;;;2.80;99.90;;;3.53;95.54;97642.78;5233804;28;20581;-62
2023/03/17 01:23:06;;;;;;;6.27;5.77;;;2.90;99.90;;;3.61;94.74;97629.13;5234899;28;20626;-62
2023/03/17 01:25:41;;;;;;;6.80;6.20;;;3.00;99.90;;;3.69;95.11;97625.56;5248559;28;20217;-64
2023/03/17 01:28:17;;;;;;;6.63;6.13;;;3.10;99.90;;;3.65;94.60;97630.25;5235672;28;20220;-63
2023/03/17 01:30:52;;;;;;;6.10;5.50;;;3.10;99.90;;;3.66;95.10;97626.94;5238066;28;20199;-65
2023/03/17 01:33:25;;;;;;;6.00;5.50;;;3.10;99.90;;;3.69;94.27;97620.53;5233591;28;20231;-62
2023/03/17 01:35:58;;;;;;;5.83;5.43;;;3.20;99.90;;;3.75;94.09;97615.03;5228154;28;20296;-67
2023/03/17 01:38:31;;;;;;;6.80;6.20;;;3.20;99.90;;;3.79;94.23;97612.00;5242303;28;20618;-63
2023/03/17 01:41:05;;;;;;;6.70;6.10;;;3.20;99.90;;;3.92;92.85;97612.22;5245529;28;20229;-63
2023/03/17 01:43:38;;;;;;;7.00;6.50;;;3.30;99.90;;;3.93;92.88;97619.03;5237091;28;20274;-65
2023/03/17 01:46:23;;;;;;;6.50;6.00;;;3.40;99.90;;;3.97;92.58;97613.44;5237329;28;20208;-63
2023/03/17 01:49:08;;;;;;;7.00;6.40;;;3.40;99.90;;;4.07;92.31;97610.88;5238499;28;20199;-64
2023/03/17 01:51:59;;;;;;;6.07;5.57;;;3.50;99.90;;;4.16;92.72;97614.88;5240985;28;20809;-63
2023/03/17 01:54:41;;;;;;;5.77;5.27;;;3.50;99.90;;;4.19;92.92;97618.53;5242052;28;20222;-65
2023/03/17 01:57:22;;;;;;;5.80;5.30;;;3.60;99.90;;;4.20;92.71;97611.81;5234395;28;20292;-64
2023/03/17 02:00:00;;;;;;;5.47;5.07;;;3.60;99.90;;;4.19;93.14;97607.53;5237838;28;20204;-63
2023/03/17 02:02:38;;;;;;;5.23;4.80;;;3.60;99.90;;;4.26;92.51;97604.69;5236911;28;20761;-63
2023/03/17 02:05:15;;;;;;;5.90;5.40;;;3.60;99.90;;;4.16;91.98;97609.84;5234046;28;20196;-64
2023/03/17 02:07:49;;;;;;;6.13;5.63;;;3.60;99.90;;;4.28;91.51;97600.66;5236442;28;20742;-66
2023/03/17 02:10:25;;;;;;;6.07;5.47;;;3.60;99.90;;;4.28;91.29;97615.81;5243022;28;20199;-67
2023/03/17 02:13:02;;;;;;;6.00;5.40;;;3.60;99.90;;;4.21;91.48;97613.59;5242539;28;20660;-63
2023/03/17 02:15:39;;;;;;;6.27;5.73;;;3.60;99.90;;;4.27;91.42;97609.00;5240521;28;20556;-62
2023/03/17 02:18:14;;;;;;;5.40;4.90;;;3.70;99.90;;;4.26;91.76;97607.22;5237069;28;20666;-65
2023/03/17 02:21:31;;;;;;;5.30;4.90;;;3.60;99.90;;;4.29;91.80;97605.84;5234723;28;20220;-64
2023/03/17 02:24:13;;;;;;;5.23;4.77;;;3.60;99.90;;;4.34;92.39;97600.25;5237264;28;20234;-64
2023/03/17 02:26:48;;;;;;;4.37;4.00;;;3.60;99.90;;;4.34;93.14;97601.13;5237653;28;20200;-62
2023/03/17 02:29:22;;;;;;;4.57;4.27;;;3.60;99.90;;;4.29;93.91;97597.34;5236169;28;20213;-62
2023/03/17 02:31:55;;;;;;;4.70;4.30;;;3.50;99.90;;;4.31;93.65;97598.34;5237336;28;20252;-63
2023/03/17 02:34:28;;;;;;;4.83;4.53;;;3.50;99.90;;;4.31;94.19;97603.41;5239380;28;20707;-65
2023/03/17 02:37:03;;;;;;;5.40;5.00;;;3.50;99.90;;;4.30;94.17;97604.19;5230835;28;20208;-63
2023/03/17 02:39:36;;;;;;;5.20;4.77;;;3.50;99.90;;;4.33;94.30;97601.00;5239978;28;20296;-63
2023/03/17 02:42:11;;;;;;;5.33;4.93;;;3.60;99.90;;;4.35;94.40;97600.38;5232730;28;20198;-62
2023/03/17 02:44:44;;;;;;;5.50;5.10;;;3.70;99.90;;;4.36;94.11;97592.00;5238455;28;20304;-64
2023/03/17 02:47:17;;;;;;;5.50;5.10;;;3.60;99.90;;;4.44;91.63;97598.53;5232333;28;20192;-64
2023/03/17 02:49:51;;;;;;;5.50;4.97;;;3.70;99.90;;;4.31;92.38;97600.00;5236641;28;20308;-63
2023/03/17 02:52:26;;;;;;;5.10;4.60;;;3.60;99.90;;;4.19;93.16;97594.88;5236131;28;20231;-62
2023/03/17 02:54:59;;;;;;;5.57;5.07;;;3.50;99.90;;;4.22;92.91;97601.06;5230867;28;20225;-63
2023/03/17 02:57:33;;;;;;;6.63;6.03;;;3.50;99.90;;;4.16;92.63;97600.59;5231402;28;20210;-63
2023/03/17 03:00:09;;;;;;;5.70;5.20;;;3.50;99.90;;;4.18;93.52;97593.13;5234968;28;20200;-63
2023/03/17 03:02:42;;;;;;;6.13;5.63;;;3.50;99.90;;;4.14;92.76;97602.09;5241225;28;20207;-63
2023/03/17 03:05:15;;;;;;;5.93;5.53;;;3.50;99.90;;;4.34;91.71;97588.47;5234932;28;20269;-64
2023/03/17 03:07:50;;;;;;;6.87;6.23;;;3.60;99.90;;;4.22;91.63;97593.47;5233221;28;20204;-60
2023/03/17 03:10:23;;;;;;;6.77;6.07;;;3.50;99.90;;;4.10;92.10;97594.19;5233579;28;20238;-67
2023/03/17 03:12:56;;;;;;;6.73;6.13;;;3.40;99.90;;;4.02;92.51;97584.34;5235263;28;20204;-63
2023/03/17 03:15:29;;;;;;;7.17;6.57;;;3.40;99.90;;;4.01;92.17;97585.13;5237413;28;20267;-62
2023/03/17 03:18:02;;;;;;;6.53;5.93;;;3.40;99.90;;;3.89;93.18;97585.78;5233926;28;20225;-64
2023/03/17 03:20:36;;;;;;;7.10;6.50;;;3.30;99.90;;;3.92;93.50;97581.88;5237533;28;20696;-62
2023/03/17 03:23:10;;;;;;;6.83;6.27;;;3.40;99.90;;;3.96;93.01;97580.47;5237050;28;20220;-63
2023/03/17 03:25:43;;;;;;;7.07;6.37;;;3.40;99.90;;;4.03;92.37;97565.91;5229624;28;20214;-62
2023/03/17 03:28:17;;;;;;;7.17;6.57;;;3.40;99.90;;;4.03;92.19;97563.38;5237081;28;20208;-63
2023/03/17 03:30:50;;;;;;;6.93;6.43;;;3.40;99.90;;;4.02;92.15;97566.66;5237376;28;20343;-64
2023/03/17 03:33:23;;;;;;;7.03;6.30;;;3.50;99.90;;;4.13;92.26;97575.06;5236828;28;20229;-66
2023/03/17 03:35:58;;;;;;;7.40;6.70;;;3.50;99.90;;;4.04;91.70;97562.59;5239884;28;20255;-64
2023/03/17 03:38:32;;;;;;;7.60;6.90;;;3.50;99.90;;;3.96;92.79;97555.19;5240525;28;20668;-65
2023/03/17 03:41:06;;;;;;;5.90;5.40;;;3.50;99.90;;;4.01;92.38;97554.78;5234043;28;20648;-66
2023/03/17 03:43:39;;;;;;;7.10;6.50;;;3.50;99.90;;;4.06;91.55;97556.03;5237830;28;20239;-64
2023/03/17 03:46:12;;;;;;;6.53;6.03;;;3.50;99.90;;;4.06;92.04;97563.59;5232049;28;20205;-65
2023/03/17 03:48:45;;;;;;;6.47;5.90;;;3.50;99.90;;;4.20;91.52;97566.28;5241701;28;20610;-65
2023/03/17 03:51:18;;;;;;;7.13;6.53;;;3.60;99.90;;;4.21;91.28;97563.91;5235996;28;20297;-65
2023/03/17 03:53:53;;;;;;;6.90;6.40;;;3.60;99.90;;;4.23;91.06;97561.47;5235201;28;20323;-64
2023/03/17 03:56:26;;;;;;;6.73;6.13;;;3.60;99.90;;;4.25;91.50;97563.34;5230872;28;20204;-65
2023/03/17 03:58:59;;;;;;;6.73;6.13;;;3.60;99.90;;;4.30;91.00;97566.25;5230240;28;20701;-64
2023/03/17 04:01:33;;;;;;;6.53;6.03;;;3.70;99.90;;;4.29;91.29;97565.38;5238514;28;20343;-65
2023/03/17 04:04:06;;;;;;;6.30;5.70;;;3.70;99.90;;;4.32;91.61;97567.25;5238874;28;20670;-66
2023/03/17 04:06:39;;;;;;;6.83;6.23;;;3.60;99.90;;;4.24;90.93;97563.25;5240436;28;20648;-64
2023/03/17 04:09:13;;;;;;;7.47;6.80;;;3.60;99.90;;;4.23;91.50;97552.22;5241068;28;20298;-64
2023/03/17 04:11:46;;;;;;;6.70;6.20;;;3.60;99.90;;;4.19;91.90;97560.34;5232348;28;20218;-64
2023/03/17 04:14:19;;;;;;;6.77;6.00;;;3.50;99.90;;;4.19;91.51;97565.41;5243690;28;20302;-65
2023/03/17 04:16:53;;;;;;;6.40;5.90;;;3.50;99.90;;;4.19;91.41;97557.81;5235329;28;20206;-64
2023/03/17 04:19:26;;;;;;;7.37;6.70;;;3.50;99.90;;;4.13;91.32;97557.38;5244245;28;20298;-65
2023/03/17 04:21:59;;;;;;;6.97;6.47;;;3.50;99.90;;;4.11;91.53;97555.47;5238829;28;20649;-64
2023/03/17 04:24:34;;;;;;;7.43;6.73;;;3.40;99.90;;;4.14;91.99;97563.28;5237465;28;20666;-66
2023/03/17 04:27:08;;;;;;;7.20;6.60;;;3.40;99.90;;;4.11;92.69;97565.59;5240513;28;20299;-63
2023/03/17 04:29:41;;;;;;;7.57;7.07;;;3.40;99.90;;;4.13;92.22;97559.00;5239825;28;20689;-66
2023/03/17 04:32:14;;;;;;;6.37;5.87;;;3.40;99.90;;;4.14;92.08;97553.19;5240150;28;20198;-65
2023/03/17 04:34:47;;;;;;;6.67;6.07;;;3.40;99.90;;;4.11;92.08;97556.34;5242822;28;20242;-66
2023/03/17 04:37:21;;;;;;;6.87;6.37;;;3.40;99.90;;;4.06;92.37;97557.63;5240729;28;20202;-66
2023/03/17 04:39:55;;;;;;;6.23;5.63;;;3.30;99.90;;;4.04;91.82;97552.47;5241737;28;20371;-64
2023/03/17 04:42:28;;;;;;;6.20;5.73;;;3.20;99.90;;;3.97;92.52;97546.81;5240501;28;20207;-65
2023/03/17 04:45:02;;;;;;;5.67;5.20;;;3.20;99.90;;;3.84;92.32;97545.00;5239065;28;20232;-61
2023/03/17 04:47:36;;;;;;;6.70;6.03;;;3.10;99.90;;;3.79;92.82;97553.88;5235201;28;20208;-64
2023/03/17 04:50:11;;;;;;;5.60;5.10;;;3.00;99.90;;;3.75;93.02;97545.19;5233723;28;20201;-65
2023/03/17 04:52:44;;;;;;;5.27;4.87;;;3.00;99.90;;;3.67;93.62;97547.88;5234439;28;20211;-66
2023/03/17 04:55:19;;;;;;;5.47;4.97;;;2.90;99.90;;;3.63;93.83;97548.38;5236136;28;20258;-65
2023/03/17 04:57:52;;;;;;;5.13;4.63;;;2.80;99.90;;;3.57;94.39;97549.66;5235746;28;20573;-63
2023/03/17 05:00:25;;;;;;;6.07;5.57;;;2.80;99.90;;;3.53;94.31;97547.66;5236870;28;20302;-66
2023/03/17 05:02:58;;;;;;;6.17;5.53;;;2.80;99.90;;;3.42;94.79;97540.00;5237746;28;20326;-65
2023/03/17 05:05:32;;;;;;;5.73;5.27;;;2.70;99.90;;;3.42;94.83;97534.94;5235904;28;20665;-64
2023/03/17 05:08:05;;;;;;;5.93;5.40;;;2.70;99.90;;;3.35;94.36;97533.59;5238592;28;20549;-66
2023/03/17 05:10:39;;;;;;;5.90;5.50;;;2.60;99.90;;;3.38;95.53;97532.19;5240350;28;20208;-65
2023/03/17 05:13:13;;;;;;;6.37;5.87;;;2.70;99.90;;;3.43;94.86;97544.28;5237379;28;20318;-65
2023/03/17 05:15:47;;;;;;;6.37;5.77;;;2.60;99.90;;;3.38;94.90;97536.38;5240603;28;20632;-66
2023/03/17 05:18:23;;;;;;;6.13;5.63;;;2.60;99.90;;;3.35;95.19;97538.66;5237492;28;20661;-65
2023/03/17 05:20:56;;;;;;;6.00;5.60;;;2.60;99.90;;;3.28;94.87;97536.38;5235007;28;20196;-61
2023/03/17 05:23:29;;;;;;;6.03;5.53;;;2.60;99.90;;;3.21;94.94;97536.66;5239971;28;20228;-65
2023/03/17 05:26:05;;;;;;;6.33;5.83;;;2.50;99.90;;;3.30;95.18;97537.41;5239151;28;20647;-62
2023/03/17 05:28:38;;;;;;;6.67;6.17;;;2.50;99.90;;;3.04;96.20;97533.66;5234469;28;20523;-65
2023/03/17 05:31:11;;;;;;;6.80;6.17;;;2.40;99.90;;;3.14;96.71;97527.69;5237512;28;20204;-65
2023/03/17 05:33:45;;;;;;;7.10;6.43;;;2.50;99.90;;;3.29;95.39;97522.97;5235485;28;20234;-64
2023/03/17 05:36:20;;;;;;;7.83;7.03;;;2.50;99.90;;;3.22;96.28;97519.09;5239028;28;20207;-64
2023/03/17 05:38:53;;;;;;;7.80;7.07;;;2.50;99.90;;;3.09;96.94;97522.31;5248161;28;20210;-64
2023/03/17 05:41:28;;;;;;;7.87;7.20;;;2.50;99.90;;;3.19;95.75;97523.91;5234033;28;20631;-65
2023/03/17 05:44:01;;;;;;;7.07;6.47;;;2.60;99.90;;;3.32;95.42;97521.59;5240960;28;20250;-65
2023/03/17 05:46:34;;;;;;;7.43;6.83;;;2.60;99.90;;;3.07;96.74;97516.25;5235091;28;20199;-65
2023/03/17 05:49:07;;;;;;;7.83;7.13;;;2.50;99.90;;;3.01;96.27;97518.28;5234367;28;20308;-63
2023/03/17 05:51:40;;;;;;;6.87;6.33;;;2.50;99.90;;;3.05;95.96;97511.81;5238234;28;20758;-65
2023/03/17 05:54:13;;;;;;;7.50;6.90;;;2.50;99.90;;;3.13;96.48;97511.66;5235082;28;20600;-65
2023/03/17 05:56:48;;;;;;;7.43;6.87;;;2.50;99.90;;;3.22;95.68;97525.78;5239493;28;20261;-63
2023/03/17 05:59:21;;;;;;;6.90;6.30;;;2.60;99.90;;;3.44;94.84;97530.91;5234314;28;20207;-64
2023/03/17 06:01:55;;;;;;;6.90;6.20;;;2.70;99.90;;;3.44;95.49;97535.97;5232335;28;21006;-64
2023/03/17 06:04:28;;;;;;;7.23;6.73;;;2.80;99.90;;;3.49;95.35;97533.03;5242501;28;20227;-65
2023/03/17 06:07:01;;;;;;;7.50;6.80;;;2.80;99.90;;;3.50;95.10;97537.31;5237178;28;20251;-63
2023/03/17 06:09:34;;;;;;;6.80;6.30;;;2.90;99.90;;;3.48;95.40;97533.78;5236262;28;20213;-64
2023/03/17 06:12:09;;;;;;;10.83;8.97;;;2.80;99.90;;;3.54;94.53;97534.25;5240256;28;20203;-65
2023/03/17 06:14:42;;;;;;;8.40;7.47;;;2.90;99.90;;;3.60;94.99;97532.22;5231229;28;20214;-65
2023/03/17 06:17:15;;;;;;;7.60;7.00;;;2.90;99.90;;;3.65;95.04;97531.69;5238357;28;20208;-61
2023/03/17 06:19:49;;;;;;;7.93;7.13;;;3.00;99.90;;;3.81;94.61;97522.03;5236012;28;20234;-65
2023/03/17 06:22:22;;;;;;;7.57;6.73;;;3.10;99.90;;;3.95;94.62;97529.03;5236329;28;20211;-62
2023/03/17 06:24:55;;;;;;;8.20;7.50;;;3.20;99.90;;;4.05;94.24;97517.97;5236079;28;20239;-65
2023/03/17 06:27:30;;;;;;;8.57;7.83;;;3.30;99.90;;;4.32;93.79;97520.81;5239998;28;20203;-64
2023/03/17 06:30:05;;;;;;;8.43;7.50;;;3.60;99.90;;;4.81;93.11;97512.69;5237094;28;20231;-62
2023/03/17 06:32:39;;;;;;;7.77;7.07;;;4.00;99.90;;;5.23;92.34;97519.09;5231966;28;20206;-64
2023/03/17 06:35:12;;;;;;;8.30;7.50;;;4.40;99.90;;;5.68;90.97;97520.59;5231610;28;20573;-63
2023/03/17 06:37:45;;;;;;;7.63;6.93;;;4.80;99.90;;;6.07;88.09;97504.78;5232909;28;20227;-63
2023/03/17 06:40:18;;;;;;;7.70;7.03;;;5.10;99.90;;;6.32;84.44;97503.88;5233062;28;20205;-64
2023/03/17 06:42:53;;;;;;;7.63;7.03;;;5.30;99.90;;;6.15;80.91;97517.97;5233653;28;20370;-63
2023/03/17 06:45:26;;;;;;;8.20;7.40;;;5.20;99.90;;;6.49;82.62;97522.78;5230409;28;20771;-64
2023/03/17 06:48:00;;;;;;;7.40;6.70;;;5.40;99.90;;;6.79;81.12;97525.63;5232651;28;20192;-65
2023/03/17 06:50:33;;;;;;;7.17;6.67;;;5.50;99.90;;;6.89;79.24;97528.84;5231597;28;20193;-63
2023/03/17 06:53:07;;;;;;;7.03;6.47;;;5.60;99.90;;;7.01;78.49;97523.72;5231051;28;20223;-64
2023/03/17 06:55:40;;;;;;;6.47;6.00;;;5.70;99.90;;;7.22;78.52;97526.75;5238245;28;20201;-65
2023/03/17 06:58:15;;;;;;;5.90;5.47;;;5.90;99.90;;;7.51;77.44;97536.25;5231995;28;20292;-63
2023/03/17 07:00:52;;;;;;;6.77;6.13;;;6.10;99.90;;;7.81;76.47;97533.84;5229200;28;20605;-64
2023/03/17 07:03:27;;;;;;;7.43;6.23;;;6.30;99.90;;;8.04;73.75;97531.09;5229280;28;20212;-65
2023/03/17 07:06:00;;;;;;;7.37;6.77;;;6.40;99.90;;;8.01;72.61;97524.91;5234299;28;20216;-62
2023/03/17 07:08:33;;;;;;;7.13;6.47;;;6.50;99.90;;;8.13;71.76;97529.09;5236508;28;20295;-65
2023/03/17 07:11:07;;;;;;;7.03;6.33;;;6.80;99.90;;;8.33;71.10;97521.78;5229427;28;20211;-64
2023/03/17 07:13:41;;;;;;;6.87;6.17;;;7.10;99.90;;;8.20;70.91;97520.16;5229541;28;20768;-64
2023/03/17 07:16:15;;;;;;;6.87;6.23;;;7.00;99.90;;;8.24;71.93;97513.56;5232061;28;20295;-61
2023/03/17 07:18:49;;;;;;;7.27;6.67;;;7.10;99.90;;;8.55;70.80;97511.22;5235214;28;20583;-63
2023/03/17 07:21:22;;;;;;;6.67;6.10;;;7.40;99.90;;;8.88;70.62;97508.91;5237653;28;20209;-65
2023/03/17 07:23:55;;;;;;;7.43;6.40;;;7.70;99.90;;;8.93;67.83;97510.06;5236966;28;20220;-65
2023/03/17 07:26:28;;;;;;;6.80;6.20;;;7.80;99.90;;;8.81;68.32;97512.75;5239204;28;20217;-64
2023/03/17 07:29:03;;;;;;;6.63;6.13;;;7.80;99.90;;;8.89;66.74;97511.53;5237356;28;20204;-65
2023/03/17 07:31:37;;;;;;;7.57;6.10;;;7.90;99.90;;;9.05;66.18;97505.66;5237962;28;20196;-64
2023/03/17 07:34:13;;;;;;;6.67;5.97;;;8.10;99.90;;;9.13;66.64;97518.81;5234849;28;20322;-65
2023/03/17 07:36:46;;;;;;;6.77;6.27;;;8.00;99.90;;;9.06;66.40;97509.94;5238898;28;20199;-65
2023/03/17 07:39:19;;;;;;;6.60;5.90;;;8.10;99.90;;;9.44;65.34;97507.00;5241286;28;20690;-64
2023/03/17 07:41:54;;;;;;;6.17;5.57;;;8.50;99.90;;;9.48;65.06;97511.47;5245068;28;20609;-64
2023/03/17 07:44:29;;;;;;;6.23;5.63;;;8.60;99.90;;;9.66;66.25;97515.84;5241037;28;20231;-63
2023/03/17 07:47:02;;;;;;;8.23;5.47;;;8.70;99.90;;;9.90;64.01;97508.63;5240366;28;20212;-63
2023/03/17 07:49:35;;;;;;;7.27;6.50;;;8.90;99.90;;;10.04;63.65;97500.03;5245776;28;20289;-65
2023/03/17 07:52:14;;;;;;;7.05;6.20;;;9.20;99.90;;;10.30;61.43;97487.78;5235712;28;20630;-62
2023/03/17 07:54:47;;;;;;;7.70;6.32;;;9.40;99.90;;;10.29;64.64;97497.13;5239242;28;20216;-64
2023/03/17 07:57:20;;;;;;;7.38;6.68;;;9.50;99.90;;;9.88;61.05;97503.44;5237091;28;20676;-62
2023/03/17 07:59:55;;;;;;;6.60;6.00;;;9.30;99.90;;;10.11;62.05;97499.56;5244143;28;20303;-63
2023/03/17 08:02:28;;;;;;;7.15;6.07;;;9.30;99.90;;;10.26;61.21;97496.06;5234812;28;20226;-63
2023/03/17 08:05:01;;;;;;;8.45;6.30;;;9.40;99.90;;;10.34;61.11;97495.69;5236679;28;20220;-65
2023/03/17 08:07:36;;;;;;;7.30;6.18;;;9.60;99.90;;;10.32;62.07;97492.16;5234014;28;20203;-61
2023/03/17 08:10:12;;;;;;;6.70;6.05;;;9.60;99.90;;;10.40;61.30;97494.25;5237401;28;20199;-64
2023/03/17 08:12:50;;;;;;;7.72;6.40;;;9.60;99.90;;;10.67;61.73;97495.66;5244922;28;20618;-63
2023/03/17 08:15:25;;;;;;;6.75;6.15;;;9.80;99.90;;;11.02;62.12;97494.88;5229360;28;20662;-65
2023/03/17 08:17:58;;;;;;;6.50;5.90;;;10.20;99.90;;;11.20;59.18;97488.91;5238500;28;20198;-63
2023/03/17 08:20:32;;;;;;;6.40;5.90;;;10.30;99.90;;;11.07;59.33;97495.09;5237674;28;20585;-64
2023/03/17 08:23:06;;;;;;;6.80;6.20;;;10.20;99.90;;;11.10;58.07;97487.56;5233865;28;20303;-65
2023/03/17 08:25:39;;;;;;;6.65;6.10;;;10.30;99.90;;;11.15;57.97;97478.44;5235925;28;20224;-61
2023/03/17 08:28:13;;;;;;;6.45;5.95;;;10.30;99.90;;;11.17;58.18;97487.06;5232819;28;20205;-64
2023/03/17 08:30:48;;;;;;;6.88;6.15;;;10.30;99.90;;;11.26;57.47;97482.38;5237370;28;20297;-64
2023/03/17 08:33:22;;;;;;;6.20;5.70;;;10.40;99.90;;;11.39;58.80;97480.41;5234633;28;20236;-65
2023/03/17 08:35:56;;;;;;;6.00;5.50;;;10.60;99.90;;;11.63;58.32;97475.59;5236911;28;20294;-65
2023/03/17 08:38:30;;;;;;;5.78;5.30;;;10.80;99.90;;;11.81;58.08;97470.44;5234778;28;20205;-64
2023/03/17 08:41:05;;;;;;;5.65;5.15;;;11.00;99.90;;;12.11;57.46;97470.97;5234406;28;20201;-62
2023/03/17 08:43:39;;;;;;;5.95;5.45;;;11.40;99.90;;;12.36;56.66;97476.38;5236415;28;21030;-64
2023/03/17 08:46:17;;;;;;;6.07;5.57;;;11.60;99.90;;;12.62;56.80;97469.81;5235281;28;20212;-63
2023/03/17 08:48:53;;;;;;;6.43;5.82;;;11.90;99.90;;;12.85;56.28;97464.78;5233263;28;20220;-66
2023/03/17 08:51:29;;;;;;;5.82;5.32;;;12.20;99.90;;;13.05;56.26;97473.31;5232334;28;20303;-62
2023/03/17 08:54:04;;;;;;;6.72;5.88;;;12.50;99.90;;;13.24;56.01;97473.22;5234190;28;20223;-65
2023/03/17 08:56:39;;;;;;;6.75;5.85;;;12.60;99.90;;;13.40;56.63;97471.31;5233561;28;20291;-64
2023/03/17 08:59:12;;;;;;;5.65;5.10;;;12.80;99.90;;;13.55;55.08;97464.19;5235519;28;20561;-63
2023/03/17 09:01:46;;;;;;;6.53;5.78;;;12.90;99.60;;;13.74;54.98;97463.22;5231920;28;20720;-63
2023/03/17 09:04:21;;;;;;;6.70;5.40;;;13.00;99.90;;;14.02;53.83;97462.56;5233541;28;20269;-65
2023/03/17 09:06:54;;;;;;;6.28;5.68;;;13.30;99.10;;;14.13;53.89;97453.53;5234616;28;20215;-62
2023/03/17 09:09:36;;;;;;;5.88;5.20;;;13.50;98.80;;;14.24;52.21;97456.50;5233631;28;20204;-65
2023/03/17 09:12:10;;;;;;;5.72;5.20;;;13.50;98.00;;;14.24;51.81;97464.22;5232034;28;20680;-64
2023/03/17 09:14:43;;;;;;;5.65;5.15;;;13.50;97.30;;;14.48;51.46;97458.19;5233137;28;20310;-65
2023/03/17 09:17:19;;;;;;;6.00;4.43;;;13.80;97.70;;;14.72;48.89;97458.22;5234445;28;20196;-64
2023/03/17 09:19:52;;;;;;;5.93;5.07;;;14.10;95.60;;;14.79;50.20;97457.59;5234346;28;20298;-65
2023/03/17 09:22:25;;;;;;;5.25;4.85;;;14.10;96.20;;;14.86;49.54;97460.44;5232552;28;20231;-63
2023/03/17 09:24:59;;;;;;;5.07;4.68;;;14.20;95.70;;;15.08;48.49;97456.88;5231544;28;20244;-65
2023/03/17 09:27:32;;;;;;;4.35;4.05;;;14.50;94.90;;;15.30;46.75;97463.56;5235332;28;20270;-65
2023/03/17 09:30:09;;;;;;;4.93;4.53;;;14.70;94.00;;;15.41;45.91;97455.34;5234644;28;20606;-64
2023/03/17 09:32:44;;;;;;;4.70;4.25;;;14.80;93.50;;;15.50;46.05;97453.03;5236717;28;20284;-62
2023/03/17 09:35:18;;;;;;;4.30;3.80;;;14.90;93.40;;;15.65;45.09;97455.22;5233566;28;20212;-63
2023/03/17 09:37:51;;;;;;;3.50;3.30;;;15.00;92.70;;;15.85;45.08;97448.09;5234261;28;20376;-65
2023/03/17 09:40:32;;;;;;;3.60;3.40;;;15.10;92.70;;;15.80;43.15;97455.72;5232761;28;20223;-65
2023/03/17 09:43:23;;;;;;;3.90;3.60;;;15.10;91.10;;;15.97;42.82;97448.50;5234047;28;20717;-65
2023/03/17 09:45:56;;;;;;;4.35;3.90;;;15.30;91.50;;;16.11;42.43;97439.44;5233827;28;20299;-64
2023/03/17 09:48:45;;;;;;;3.70;3.40;;;15.50;90.60;;;16.30;42.30;97442.53;5231536;28;20208;-62
2023/03/17 09:51:19;;;;;;;3.45;3.25;;;15.70;90.60;;;16.42;41.91;97443.75;5231259;28;20232;-63
2023/03/17 09:53:59;;;;;;;3.15;2.95;;;15.90;90.10;;;16.51;40.70;97435.41;5232998;28;20228;-63
2023/03/17 09:56:34;;;;;;;3.58;3.28;;;15.90;88.10;;;16.66;40.07;97440.94;5234793;28;20289;-63
2023/03/17 09:59:29;;;;;;;3.20;3.00;;;16.10;87.70;;;16.81;39.66;97443.09;5234177;28;20307;-64
2023/03/17 10:02:02;;;;;;;3.47;3.17;;;16.10;86.50;;;16.72;39.54;97442.81;5234371;28;20291;-63
2023/03/17 10:04:37;;;;;;;3.72;3.42;;;16.20;85.50;;;16.73;40.91;97433.38;5233024;28;21248;-63
2023/03/17 10:07:15;;;;;;;3.45;3.17;;;16.20;89.10;;;16.92;38.89;97435.63;5230452;28;20220;-64
2023/03/17 10:09:59;;;;;;;3.28;3.08;;;16.30;86.00;;;16.91;37.98;97444.19;5233122;28;20286;-63
2023/03/17 10:12:46;;;;;;;3.50;3.10;;;16.30;83.70;;;16.92;39.57;97432.16;5236879;28;20196;-63
2023/03/17 10:15:26;;;;;;;3.40;3.10;;;16.20;85.50;;;17.03;38.91;97434.19;5232484;28;20202;-63
2023/03/17 10:18:00;;;;;;;3.58;3.33;;;16.40;84.80;;;17.15;38.74;97430.16;5228891;28;20228;-65
2023/03/17 10:20:47;;;;;;;3.13;2.90;;;16.50;84.40;;;17.20;38.60;97431.16;5231961;28;20302;-63
2023/03/17 10:23:30;;;;;;;3.05;2.80;;;16.50;84.30;;;17.17;38.28;97425.88;5229928;28;20696;-66
2023/03/17 10:26:08;;;;;;;3.05;2.85;;;16.50;83.90;;;17.13;38.66;97429.25;5232611;28;20250;-64
2023/03/17 10:28:42;;;;;;;2.80;2.60;;;16.50;83.30;;;17.16;39.76;97413.81;5234117;28;20636;-64
2023/03/17 10:31:18;;;;;;;2.72;2.47;;;16.50;85.50;;;17.35;39.82;97416.00;5230776;28;20207;-63
2023/03/17 10:33:52;;;;;;;3.00;2.78;;;16.60;86.10;;;17.46;40.10;97419.72;5234060;28;20228;-64
2023/03/17 10:36:41;;;;;;;3.00;2.80;;;16.80;85.40;;;17.68;40.39;97415.00;5232144;28;20208;-65
2023/03/17 10:39:19;;;;;;;2.53;2.38;;;16.90;86.60;;;17.75;39.77;97415.19;5231974;28;20697;-64
2023/03/17 10:41:57;;;;;;;2.88;2.67;;;17.00;84.90;;;17.77;38.04;97415.22;5229508;28;20207;-63
2023/03/17 10:44:41;;;;;;;2.88;2.60;;;17.10;82.70;;;17.86;38.31;97405.09;5232171;28;20221;-65
2023/03/17 10:47:30;;;;;;;2.90;2.70;;;17.10;84.10;;;17.87;38.73;97412.00;5231108;28;20307;-63
2023/03/17 10:50:18;;;;;;;2.67;2.47;;;17.20;84.50;;;18.00;38.62;97414.03;5233836;28;20197;-63
2023/03/17 10:52:58;;;;;;;3.03;2.78;;;17.40;83.90;;;18.08;38.22;97408.13;5230770;28;20265;-63
2023/03/17 10:55:39;;;;;;;3.03;2.83;;;17.40;83.70;;;18.11;38.81;97400.41;5232757;28;20651;-63
2023/03/17 10:58:17;;;;;;;2.88;2.67;;;17.50;84.20;;;18.24;38.61;97407.59;5231647;28;20192;-64
2023/03/17 11:00:56;;;;;;;2.90;2.70;;;17.50;83.90;;;18.22;37.38;97409.25;5229310;28;20333;-65
2023/03/17 11:03:33;;;;;;;2.65;2.45;;;17.50;81.80;;;18.47;36.35;97402.84;5234170;28;20221;-64
2023/03/17 11:06:08;;;;;;;2.55;2.35;;;17.70;80.90;;;18.41;37.21;97398.44;5231386;28;20741;-64